Observations

81.3 °F / 27.4 °C
ENE at 14 MPH
82%
75.6°F / 24.2 °C
29.77" (1008 mb)
10 mile(s)
partly cloudy
2022.07.02 1400 UTC

Observations

Surface


Raw METARs

2022/07/02 14:00
PKWA 021400Z AUTO 07012KT 10SM SCT019 27/24 A2977 RMK AO2 T02740242

Translated METAR

Kwajalein, Bucholz AAF, Kwajalein KMR ATOL Airport, Marshall Islands (PKWA) 08-43N 167-44E 2M
Jul 02, 2022 - 10:00 AM EDT / 2022.07.02 1400 UTC
Wind: from the ENE (070 degrees) at 14 MPH (12 KT):0
Visibility: 10 mile(s):0
Sky conditions: partly cloudy
Temperature: 81.3 F (27.4 C)
Dew Point: 75.6 F (24.2 C)
Relative Humidity: 82%
Pressure (altimeter): 29.77 in. Hg (1008 hPa)
ob: PKWA 021400Z AUTO 07012KT 10SM SCT019 27/24 A2977 RMK AO2 T02740242
cycle: 14



Upper Air


Latest Skew-T

Skew T Diagram

Latest Data File